createdAt,value
2023-04-04T00:01:06.181Z,1.82
2023-04-04T00:02:28.794Z,1.69
2023-04-04T00:03:51.081Z,1.95
2023-04-04T00:05:13.023Z,1.74
2023-04-04T00:06:35.072Z,2.00
2023-04-04T00:07:57.072Z,2.25
2023-04-04T00:09:19.841Z,2.22
2023-04-04T00:10:41.630Z,2.21
2023-04-04T00:12:05.649Z,2.37
2023-04-04T00:13:27.078Z,2.45
2023-04-04T00:14:48.899Z,2.77
2023-04-04T00:16:11.246Z,2.29
2023-04-04T00:17:33.032Z,2.52
2023-04-04T00:18:56.406Z,2.79
2023-04-04T00:21:39.325Z,2.79
2023-04-04T00:23:01.106Z,2.21
2023-04-04T00:24:23.341Z,2.27
2023-04-04T00:25:50.301Z,1.76
2023-04-04T00:27:12.616Z,1.87
2023-04-04T00:28:34.212Z,1.96
2023-04-04T00:29:56.222Z,1.71
2023-04-04T00:31:18.370Z,1.70
2023-04-04T00:32:39.827Z,1.80
2023-04-04T00:34:02.160Z,1.76
2023-04-04T00:35:24.782Z,1.92
2023-04-04T00:36:47.009Z,1.98
2023-04-04T00:38:08.565Z,2.00
2023-04-04T00:39:30.350Z,2.33
2023-04-04T00:40:52.370Z,2.12
2023-04-04T00:43:27.391Z,2.14
2023-04-04T00:44:51.291Z,2.13
2023-04-04T00:46:14.181Z,2.18
2023-04-04T00:47:38.718Z,2.22
2023-04-04T00:49:00.632Z,2.19
2023-04-04T00:50:22.592Z,2.29
2023-04-04T00:51:44.768Z,2.03
2023-04-04T00:53:06.968Z,2.70
2023-04-04T00:55:43.877Z,2.35
2023-04-04T00:57:06.003Z,1.84
2023-04-04T00:58:28.037Z,2.33
2023-04-04T00:59:50.489Z,2.22
2023-04-04T01:01:12.041Z,2.48
2023-04-04T01:02:34.328Z,2.31
2023-04-04T01:03:56.531Z,2.77
2023-04-04T01:05:18.138Z,2.67
2023-04-04T01:06:40.415Z,2.44
2023-04-04T01:08:02.417Z,2.22
2023-04-04T01:09:24.635Z,1.76
2023-04-04T01:11:56.414Z,2.11
2023-04-04T01:13:18.900Z,2.19
2023-04-04T01:14:41.300Z,1.99
2023-04-04T01:16:04.306Z,2.27
2023-04-04T01:18:36.474Z,2.28
2023-04-04T01:20:14.146Z,2.09
2023-04-04T01:21:35.502Z,2.46
2023-04-04T01:24:16.009Z,1.98
2023-04-04T01:25:38.218Z,2.68
2023-04-04T01:27:00.544Z,2.21
2023-04-04T01:28:22.539Z,2.81
2023-04-04T01:29:44.561Z,2.99
2023-04-04T01:31:07.118Z,2.86
2023-04-04T01:32:41.857Z,2.76
2023-04-04T01:35:32.521Z,2.88
2023-04-04T01:38:33.644Z,2.88
2023-04-04T01:39:58.881Z,3.31
2023-04-04T01:41:20.393Z,3.01
2023-04-04T01:42:42.187Z,3.42
2023-04-04T01:44:04.230Z,2.94
2023-04-04T01:45:25.707Z,3.86
2023-04-04T01:46:47.880Z,3.45
2023-04-04T01:48:09.326Z,2.82
2023-04-04T01:49:31.403Z,2.61
2023-04-04T01:50:53.688Z,2.39
2023-04-04T01:52:15.254Z,2.34
2023-04-04T01:53:36.345Z,2.39
2023-04-04T01:56:21.646Z,2.52
2023-04-04T01:57:43.680Z,2.40
2023-04-04T01:59:05.786Z,2.92
2023-04-04T02:00:28.325Z,2.14
2023-04-04T02:01:50.004Z,2.22
2023-04-04T02:04:23.411Z,2.81
2023-04-04T02:05:46.062Z,3.37
2023-04-04T02:07:07.177Z,2.50
2023-04-04T02:08:29.134Z,2.32
2023-04-04T02:09:51.611Z,2.35
2023-04-04T02:11:14.044Z,2.45
2023-04-04T02:12:35.448Z,2.50
2023-04-04T02:13:56.931Z,2.94
2023-04-04T02:15:17.920Z,2.60
2023-04-04T02:16:40.838Z,2.54
2023-04-04T02:18:04.138Z,2.49
2023-04-04T02:20:40.636Z,2.60
2023-04-04T02:23:16.459Z,2.54
2023-04-04T02:24:39.866Z,2.63
2023-04-04T02:27:23.248Z,2.49
2023-04-04T02:28:44.679Z,2.78
2023-04-04T02:30:07.995Z,2.33
2023-04-04T02:31:30.254Z,3.58
2023-04-04T02:32:52.618Z,2.25
2023-04-04T02:34:14.099Z,3.02
2023-04-04T02:35:36.448Z,3.07
2023-04-04T02:36:58.458Z,2.84
2023-04-04T02:38:20.519Z,3.21
2023-04-04T02:39:42.762Z,3.51
2023-04-04T02:41:04.245Z,3.06
2023-04-04T02:42:25.812Z,2.54
2023-04-04T02:43:48.224Z,2.53
2023-04-04T02:45:10.540Z,2.52
2023-04-04T02:46:33.795Z,2.39
2023-04-04T02:47:55.726Z,2.27
2023-04-04T02:49:18.216Z,2.09
2023-04-04T02:50:40.335Z,2.07
2023-04-04T02:52:02.271Z,2.18
2023-04-04T02:53:24.261Z,2.06
2023-04-04T02:54:46.063Z,2.15
2023-04-04T02:56:08.353Z,1.87
2023-04-04T02:58:42.777Z,2.13
2023-04-04T03:00:05.308Z,2.12
2023-04-04T03:01:29.388Z,2.49
2023-04-04T03:02:55.215Z,2.37
2023-04-04T03:04:16.564Z,2.49
2023-04-04T03:05:38.373Z,2.61
2023-04-04T03:07:00.032Z,2.59
2023-04-04T03:08:21.474Z,2.47
2023-04-04T03:09:43.100Z,2.26
2023-04-04T03:12:14.880Z,2.26
2023-04-04T03:14:48.041Z,2.09
2023-04-04T03:16:10.365Z,1.81
2023-04-04T03:17:31.980Z,2.01
2023-04-04T03:20:05.735Z,2.05
2023-04-04T03:21:27.479Z,1.94
2023-04-04T03:22:49.387Z,2.13
2023-04-04T03:24:10.829Z,2.17
2023-04-04T03:25:32.706Z,2.46
2023-04-04T03:26:54.769Z,2.24
2023-04-04T03:28:17.267Z,2.11
2023-04-04T03:29:40.386Z,1.72
2023-04-04T03:31:06.007Z,1.99
2023-04-04T03:33:58.224Z,1.86
2023-04-04T03:36:37.671Z,2.69
2023-04-04T03:38:02.524Z,2.67
2023-04-04T03:39:29.643Z,2.40
2023-04-04T03:41:01.845Z,2.33
2023-04-04T03:42:23.491Z,2.11
2023-04-04T03:43:45.501Z,2.16
2023-04-04T03:45:08.703Z,2.28
2023-04-04T03:46:30.504Z,2.37
2023-04-04T03:47:52.511Z,2.67
2023-04-04T03:49:14.924Z,2.88
2023-04-04T03:50:36.453Z,2.81
2023-04-04T03:51:58.211Z,2.72
2023-04-04T03:53:19.964Z,3.11
2023-04-04T03:54:42.340Z,2.36
2023-04-04T03:56:05.198Z,2.97
2023-04-04T03:57:27.456Z,2.88
2023-04-04T03:58:49.476Z,3.06
2023-04-04T04:00:13.563Z,4.26
2023-04-04T04:01:35.439Z,3.71
2023-04-04T04:02:58.030Z,2.78
2023-04-04T04:04:19.931Z,3.75
2023-04-04T04:05:41.950Z,2.86
2023-04-04T04:07:04.671Z,2.84
2023-04-04T04:08:27.200Z,2.35
2023-04-04T04:09:48.634Z,2.44
2023-04-04T04:11:11.161Z,2.82
2023-04-04T04:12:33.250Z,3.03
2023-04-04T04:13:55.489Z,2.92
2023-04-04T04:15:17.572Z,3.03
2023-04-04T04:16:40.154Z,2.44
2023-04-04T04:18:05.390Z,2.72
2023-04-04T04:19:26.877Z,3.87
2023-04-04T04:20:49.478Z,2.84
2023-04-04T04:22:10.611Z,3.53
2023-04-04T04:23:32.672Z,3.09
2023-04-04T04:24:55.988Z,3.47
2023-04-04T04:27:40.061Z,2.52
2023-04-04T04:29:02.204Z,3.38
2023-04-04T04:30:23.274Z,3.46
2023-04-04T04:44:44.571Z,2.63
2023-04-04T04:46:06.963Z,2.72
2023-04-04T04:47:30.394Z,2.93
2023-04-04T04:48:53.663Z,2.69
2023-04-04T04:50:16.216Z,2.85
2023-04-04T04:51:38.482Z,3.28
2023-04-04T04:53:00.385Z,5.54
2023-04-04T04:54:22.741Z,3.49
2023-04-04T04:55:45.930Z,3.28
2023-04-04T04:57:08.225Z,3.42
2023-04-04T04:59:57.448Z,3.11
2023-04-04T05:02:46.532Z,2.83
2023-04-04T05:05:28.323Z,3.05
2023-04-04T05:06:50.478Z,3.66
2023-04-04T05:08:12.964Z,4.61
2023-04-04T05:09:35.159Z,2.69
2023-04-04T05:10:56.514Z,3.17
2023-04-04T05:12:19.909Z,3.59
2023-04-04T05:13:41.325Z,2.87
2023-04-04T05:15:05.857Z,3.16
2023-04-04T05:16:28.998Z,3.65
2023-04-04T05:17:50.856Z,3.86
2023-04-04T05:19:13.246Z,4.01
2023-04-04T05:20:35.847Z,3.70
2023-04-04T05:21:57.762Z,2.94
2023-04-04T05:23:19.158Z,3.62
2023-04-04T05:25:51.463Z,3.12
2023-04-04T05:27:13.423Z,2.62
2023-04-04T05:28:34.916Z,2.69
2023-04-04T05:29:59.578Z,3.14
2023-04-04T05:31:21.621Z,3.57
2023-04-04T05:32:45.388Z,3.90
2023-04-04T05:34:08.355Z,4.62
2023-04-04T05:52:57.417Z,2.87
2023-04-04T05:55:33.061Z,3.18
2023-04-04T05:56:56.798Z,3.22
2023-04-04T05:58:19.712Z,3.68
2023-04-04T05:59:41.688Z,3.31
2023-04-04T06:01:12.928Z,3.51
2023-04-04T06:02:35.162Z,3.10
2023-04-04T06:03:59.792Z,3.11
2023-04-04T06:05:21.699Z,2.95
2023-04-04T06:06:44.083Z,2.32
2023-04-04T06:08:05.465Z,3.13
2023-04-04T06:09:27.438Z,4.12
2023-04-04T06:10:49.225Z,3.87
2023-04-04T06:12:11.147Z,4.00
2023-04-04T06:13:33.666Z,3.12
2023-04-04T06:14:56.201Z,3.58
2023-04-04T06:16:18.977Z,3.91
2023-04-04T06:17:41.760Z,3.55
2023-04-04T06:19:03.426Z,2.94
2023-04-04T06:20:25.875Z,3.21
2023-04-04T06:23:42.309Z,3.36
2023-04-04T06:25:06.452Z,4.21
2023-04-04T06:26:29.945Z,6.82
2023-04-04T06:27:52.158Z,6.08
2023-04-04T06:29:15.859Z,4.79
2023-04-04T06:30:42.730Z,3.67
2023-04-04T06:32:05.594Z,3.88
2023-04-04T06:33:26.812Z,3.74
2023-04-04T06:34:49.079Z,3.05
2023-04-04T06:36:12.837Z,2.39
2023-04-04T06:37:34.696Z,2.96
2023-04-04T06:38:56.494Z,3.11
2023-04-04T06:40:18.873Z,3.62
2023-04-04T06:41:43.123Z,3.52
2023-04-04T06:43:05.927Z,3.26
2023-04-04T06:44:28.862Z,3.45
2023-04-04T06:45:53.179Z,3.38
2023-04-04T06:47:15.576Z,3.39
2023-04-04T06:48:37.421Z,4.22
2023-04-04T06:49:59.286Z,3.88
2023-04-04T06:51:21.957Z,3.83
2023-04-04T06:52:45.226Z,3.40
2023-04-04T06:55:29.385Z,3.01
2023-04-04T06:56:51.796Z,3.50
2023-04-04T06:58:22.377Z,3.50
2023-04-04T06:59:54.309Z,3.39
2023-04-04T07:01:16.239Z,3.69
2023-04-04T07:02:40.383Z,4.16
2023-04-04T07:04:03.040Z,4.69
2023-04-04T07:05:24.680Z,4.74
2023-04-04T07:06:47.022Z,3.33
2023-04-04T07:08:11.325Z,4.53
2023-04-04T07:09:34.656Z,3.97
2023-04-04T07:10:56.830Z,2.89
2023-04-04T07:12:20.422Z,2.46
2023-04-04T07:13:46.125Z,3.11
2023-04-04T07:15:11.784Z,2.93
2023-04-04T07:16:34.384Z,2.81
2023-04-04T07:17:58.795Z,3.04
2023-04-04T07:19:21.763Z,3.80
2023-04-04T07:20:50.075Z,3.43
2023-04-04T07:22:12.599Z,4.39
2023-04-04T07:23:35.005Z,4.18
2023-04-04T07:25:01.836Z,3.40
2023-04-04T07:26:23.676Z,2.92
2023-04-04T07:27:45.788Z,2.83
2023-04-04T07:29:08.447Z,3.70
2023-04-04T07:30:30.423Z,2.47
2023-04-04T07:31:52.540Z,4.07
2023-04-04T07:33:21.829Z,3.56
2023-04-04T07:34:55.866Z,3.17
2023-04-04T07:36:17.549Z,3.97
2023-04-04T07:37:39.557Z,4.45
2023-04-04T07:39:04.585Z,3.63
2023-04-04T07:40:28.247Z,3.74
2023-04-04T07:41:50.547Z,3.34
2023-04-04T07:43:13.531Z,3.42
2023-04-04T07:44:39.429Z,3.46
2023-04-04T07:46:02.491Z,3.33
2023-04-04T07:47:25.240Z,3.96
2023-04-04T07:48:49.234Z,3.28
2023-04-04T07:50:20.078Z,2.89
2023-04-04T07:51:46.319Z,3.33
2023-04-04T07:53:15.499Z,3.64
2023-04-04T07:54:38.594Z,3.29
2023-04-04T07:56:00.317Z,4.37
2023-04-04T07:57:22.934Z,3.21
2023-04-04T07:58:46.582Z,3.47
2023-04-04T08:00:16.222Z,2.66
2023-04-04T08:03:08.719Z,3.62
2023-04-04T08:04:31.877Z,3.75
2023-04-04T08:06:02.075Z,3.60
2023-04-04T08:07:30.280Z,3.01
2023-04-04T08:08:54.032Z,3.56
2023-04-04T08:10:16.163Z,4.06
2023-04-04T08:11:37.984Z,2.48
2023-04-04T08:13:01.722Z,2.90
2023-04-04T08:14:23.382Z,3.21
2023-04-04T08:15:49.108Z,2.83
2023-04-04T08:17:11.315Z,3.04
2023-04-04T08:18:36.880Z,3.40
2023-04-04T08:20:02.142Z,3.04
2023-04-04T08:21:24.233Z,2.83
2023-04-04T08:22:48.088Z,3.58
2023-04-04T08:24:10.234Z,3.26
2023-04-04T08:25:32.796Z,3.28
2023-04-04T08:27:04.553Z,3.65
2023-04-04T08:28:20.888Z,3.63
2023-04-04T08:29:49.148Z,2.18
2023-04-04T08:31:13.357Z,3.60
2023-04-04T08:32:36.873Z,4.29
2023-04-04T08:35:52.142Z,4.42
2023-04-04T08:37:14.097Z,2.76
2023-04-04T08:38:39.341Z,2.22
2023-04-04T08:40:07.794Z,2.52
2023-04-04T08:41:30.636Z,2.62
2023-04-04T08:55:13.123Z,2.61
2023-04-04T08:57:58.408Z,2.77
2023-04-04T08:59:21.624Z,2.44
2023-04-04T09:00:44.287Z,2.71
2023-04-04T09:02:15.256Z,2.72
2023-04-04T09:03:37.627Z,2.66
2023-04-04T09:05:06.826Z,2.80
2023-04-04T09:06:28.824Z,3.75
2023-04-04T09:10:56.973Z,3.23
2023-04-04T09:12:28.380Z,3.58
2023-04-04T09:13:53.191Z,5.04
2023-04-04T09:15:19.244Z,3.60
2023-04-04T09:16:49.497Z,2.59
2023-04-04T09:18:13.069Z,2.81
2023-04-04T09:19:37.545Z,3.23
2023-04-04T09:21:01.777Z,4.96
2023-04-04T09:22:23.764Z,4.46
2023-04-04T09:24:02.392Z,2.92
2023-04-04T09:25:31.304Z,2.74
2023-04-04T09:26:55.381Z,2.81
2023-04-04T09:28:18.477Z,3.54
2023-04-04T09:29:40.895Z,3.03
2023-04-04T09:31:04.471Z,4.55
2023-04-04T09:32:30.578Z,2.98
2023-04-04T09:33:55.386Z,2.24
2023-04-04T10:28:14.993Z,2.45
2023-04-04T10:55:30.301Z,3.12
2023-04-04T11:08:46.752Z,1.87
2023-04-04T11:12:39.781Z,1.68
2023-04-04T11:14:03.822Z,2.15
2023-04-04T11:15:42.402Z,2.09
2023-04-04T11:18:55.021Z,2.68
2023-04-04T11:20:36.723Z,3.42
2023-04-04T11:22:07.678Z,3.23
2023-04-04T11:24:00.047Z,2.62
2023-04-04T11:25:38.192Z,2.97
2023-04-04T11:27:00.696Z,3.12
2023-04-04T11:28:30.216Z,3.62
2023-04-04T11:29:54.793Z,3.40
2023-04-04T12:31:13.041Z,3.99
2023-04-04T13:28:09.981Z,3.11
2023-04-04T13:29:32.666Z,3.66
2023-04-04T14:04:13.231Z,2.97
2023-04-04T14:21:55.280Z,3.17
2023-04-04T14:39:41.516Z,2.81
2023-04-04T14:55:17.221Z,2.61
2023-04-04T14:56:42.652Z,2.63
2023-04-04T14:58:06.609Z,3.04
2023-04-04T14:59:33.759Z,3.03
2023-04-04T15:00:58.618Z,4.72
2023-04-04T15:02:21.181Z,3.57
2023-04-04T15:03:46.546Z,3.59
2023-04-04T15:05:08.938Z,3.74
2023-04-04T15:39:23.058Z,3.08
2023-04-04T15:53:20.242Z,3.09
2023-04-04T15:56:05.510Z,3.99
2023-04-04T15:57:28.390Z,4.16
2023-04-04T15:58:50.488Z,4.33
2023-04-04T16:00:16.472Z,3.57
2023-04-04T16:01:39.919Z,3.81
2023-04-04T16:03:01.909Z,3.87
2023-04-04T16:04:25.169Z,3.92
2023-04-04T16:05:49.507Z,3.87
2023-04-04T16:07:14.055Z,4.40
2023-04-04T16:08:40.707Z,4.30
2023-04-04T16:10:03.455Z,4.91
2023-04-04T16:11:25.740Z,4.55
2023-04-04T16:12:48.127Z,4.55
2023-04-04T16:14:11.121Z,4.70
2023-04-04T16:15:36.565Z,4.22
2023-04-04T16:16:58.432Z,4.62
2023-04-04T16:18:21.334Z,5.47
2023-04-04T16:19:44.961Z,5.18
2023-04-04T16:21:08.928Z,4.29
2023-04-04T16:22:32.753Z,4.51
2023-04-04T16:23:54.804Z,4.83
2023-04-04T16:25:17.264Z,4.92
2023-04-04T16:26:38.824Z,5.21
2023-04-04T16:28:00.516Z,5.37
2023-04-04T16:29:22.489Z,5.64
2023-04-04T16:30:44.207Z,6.49
2023-04-04T16:32:05.649Z,6.15
2023-04-04T16:33:27.993Z,6.19
2023-04-04T16:34:49.612Z,5.35
2023-04-04T16:36:13.050Z,5.49
2023-04-04T16:37:37.374Z,5.72
2023-04-04T16:38:59.226Z,5.97
2023-04-04T16:40:21.316Z,5.92
2023-04-04T16:41:44.192Z,5.04
2023-04-04T16:43:05.892Z,4.61
2023-04-04T16:44:28.872Z,4.34
2023-04-04T16:45:53.493Z,3.92
2023-04-04T16:47:15.482Z,4.62
2023-04-04T16:48:37.958Z,4.93
2023-04-04T16:50:04.346Z,4.68
2023-04-04T16:51:27.113Z,4.88
2023-04-04T16:52:49.714Z,4.37
2023-04-04T16:55:38.002Z,4.45
2023-04-04T16:56:59.628Z,4.68
2023-04-04T16:58:22.400Z,5.26
2023-04-04T16:59:47.563Z,10.45
2023-04-04T17:01:11.424Z,5.91
2023-04-04T17:02:45.946Z,6.19
2023-04-04T17:05:36.085Z,3.98
2023-04-04T17:07:02.259Z,4.22
2023-04-04T17:08:23.950Z,3.52
2023-04-04T17:09:48.224Z,3.60
2023-04-04T17:11:10.200Z,3.88
2023-04-04T17:12:32.813Z,4.03
2023-04-04T17:13:55.591Z,3.91
2023-04-04T17:15:20.664Z,4.49
2023-04-04T17:16:42.662Z,4.09
2023-04-04T17:18:16.771Z,4.10
2023-04-04T17:19:38.730Z,3.81
2023-04-04T17:21:00.291Z,4.08
2023-04-04T17:22:26.103Z,3.93
2023-04-04T17:23:48.290Z,4.13
2023-04-04T17:25:14.002Z,4.16
2023-04-04T17:26:36.996Z,4.18
2023-04-04T17:27:59.369Z,4.22
2023-04-04T17:29:31.444Z,4.06
2023-04-04T17:31:01.685Z,4.87
2023-04-04T17:32:24.893Z,5.50
2023-04-04T17:35:14.242Z,5.09
2023-04-04T17:36:38.193Z,5.10
2023-04-04T17:38:00.180Z,5.34
2023-04-04T17:39:22.706Z,5.85
2023-04-04T17:40:44.141Z,4.74
2023-04-04T17:42:07.872Z,5.54
2023-04-04T17:43:31.549Z,4.48
2023-04-04T17:44:53.952Z,5.44
2023-04-04T17:46:27.738Z,3.89
2023-04-04T17:47:56.609Z,4.09
2023-04-04T17:49:18.496Z,3.04
2023-04-04T17:50:40.133Z,3.82
2023-04-04T17:52:07.941Z,3.51
2023-04-04T17:53:30.848Z,3.09
2023-04-04T17:55:00.342Z,3.61
2023-04-04T17:56:33.639Z,3.20
2023-04-04T17:57:55.947Z,3.32
2023-04-04T17:59:17.787Z,3.45
2023-04-04T18:00:41.128Z,2.79
2023-04-04T18:02:03.104Z,2.79
2023-04-04T18:03:26.192Z,3.08
2023-04-04T18:04:48.432Z,2.71
2023-04-04T18:06:10.194Z,2.31
2023-04-04T18:07:31.903Z,3.06
2023-04-04T18:08:56.282Z,3.06
2023-04-04T18:10:20.083Z,3.29
2023-04-04T18:11:41.553Z,3.43
2023-04-04T18:13:03.833Z,3.19
2023-04-04T18:14:26.040Z,3.12
2023-04-04T18:15:49.495Z,2.99
2023-04-04T18:17:10.952Z,3.22
2023-04-04T18:18:32.229Z,3.80
2023-04-04T18:19:54.560Z,3.63
2023-04-04T18:21:16.485Z,3.82
2023-04-04T18:22:38.514Z,4.05
2023-04-04T18:24:01.724Z,4.43
2023-04-04T18:25:24.224Z,4.15
2023-04-04T18:26:46.578Z,4.05
2023-04-04T18:28:08.795Z,3.87
2023-04-04T18:29:30.701Z,4.06
2023-04-04T18:30:53.621Z,4.47
2023-04-04T18:32:17.846Z,3.98
2023-04-04T18:33:40.243Z,3.84
2023-04-04T18:35:01.475Z,3.58
2023-04-04T18:36:24.900Z,3.71
2023-04-04T18:37:46.691Z,4.14
2023-04-04T18:39:10.574Z,4.02
2023-04-04T18:40:32.980Z,3.60
2023-04-04T18:41:55.020Z,4.25
2023-04-04T18:43:17.485Z,4.94
2023-04-04T18:44:42.349Z,4.55
2023-04-04T18:46:05.174Z,4.50
2023-04-04T18:47:31.122Z,4.54
2023-04-04T18:48:53.651Z,4.42
2023-04-04T18:50:17.455Z,4.57
2023-04-04T18:51:40.535Z,4.89
2023-04-04T18:54:25.075Z,4.38
2023-04-04T18:57:13.052Z,7.11
2023-04-04T18:58:36.003Z,7.72
2023-04-04T19:01:19.478Z,4.31
2023-04-04T19:02:41.709Z,3.87
2023-04-04T19:04:03.657Z,3.71
2023-04-04T19:05:27.067Z,3.58
2023-04-04T19:06:51.192Z,3.28
2023-04-04T19:08:15.710Z,3.56
2023-04-04T19:09:37.631Z,2.76
2023-04-04T19:10:59.492Z,2.92
2023-04-04T19:12:20.601Z,2.78
2023-04-04T19:13:42.657Z,3.02
2023-04-04T19:15:06.529Z,2.74
2023-04-04T19:16:27.682Z,2.30
2023-04-04T19:17:49.281Z,2.36
2023-04-04T19:19:12.383Z,2.30
2023-04-04T19:20:35.051Z,2.51
2023-04-04T19:21:58.715Z,2.56
2023-04-04T19:23:20.928Z,2.56
2023-04-04T19:24:43.054Z,2.87
2023-04-04T19:26:06.695Z,2.39
2023-04-04T19:27:29.032Z,3.13
2023-04-04T19:28:52.927Z,2.87
2023-04-04T19:30:46.195Z,2.78
2023-04-04T19:32:13.104Z,2.98
2023-04-04T19:33:36.715Z,2.72
2023-04-04T19:35:01.230Z,2.98
2023-04-04T19:36:24.022Z,3.19
2023-04-04T19:37:46.155Z,3.74
2023-04-04T19:39:08.919Z,3.03
2023-04-04T19:40:47.689Z,2.73
2023-04-04T19:42:09.606Z,2.91
2023-04-04T19:43:33.131Z,2.83
2023-04-04T19:44:55.511Z,2.68
2023-04-04T19:46:27.802Z,3.21
2023-04-04T19:47:49.947Z,3.06
2023-04-04T19:49:12.466Z,2.66
2023-04-04T19:50:36.907Z,3.36
2023-04-04T19:52:00.581Z,4.85
2023-04-04T19:53:23.290Z,3.52
2023-04-04T19:54:45.828Z,2.54
2023-04-04T19:56:09.391Z,3.82
2023-04-04T19:57:31.411Z,3.84
2023-04-04T19:59:01.148Z,3.85
2023-04-04T20:00:23.759Z,2.86
2023-04-04T20:01:57.792Z,2.72
2023-04-04T20:17:40.082Z,2.79
2023-04-04T20:19:04.514Z,2.79
2023-04-04T20:20:46.728Z,2.71
2023-04-04T20:22:09.364Z,2.28
2023-04-04T20:23:33.063Z,2.83
2023-04-04T20:24:54.754Z,2.46
2023-04-04T20:26:53.011Z,2.55
2023-04-04T20:28:26.455Z,2.27
2023-04-04T20:31:13.650Z,2.27
2023-04-04T20:32:35.219Z,2.26
2023-04-04T20:33:58.907Z,2.12
2023-04-04T20:35:28.375Z,1.87
2023-04-04T20:36:50.027Z,2.01
2023-04-04T20:38:14.045Z,1.94
2023-04-04T20:39:41.451Z,1.84
2023-04-04T20:41:07.812Z,1.94
2023-04-04T20:42:37.694Z,1.86
2023-04-04T20:43:59.779Z,2.12
2023-04-04T20:45:42.891Z,2.14
2023-04-04T20:47:07.511Z,1.97
2023-04-04T20:48:38.064Z,1.94
2023-04-04T20:50:01.898Z,1.91
2023-04-04T20:52:48.202Z,1.52
2023-04-04T20:54:11.477Z,1.86
2023-04-04T20:55:34.728Z,1.78
2023-04-04T20:59:41.851Z,2.02
2023-04-04T21:01:04.560Z,1.90
2023-04-04T21:02:26.308Z,2.08
2023-04-04T21:03:48.327Z,2.21
2023-04-04T21:05:13.923Z,2.53
2023-04-04T21:06:35.595Z,1.97
2023-04-04T21:07:59.740Z,2.03
2023-04-04T21:09:21.275Z,2.09
2023-04-04T21:10:49.739Z,2.07
2023-04-04T21:12:12.881Z,2.06
2023-04-04T21:27:06.067Z,2.09
2023-04-04T21:28:37.188Z,2.16
2023-04-04T21:29:58.724Z,2.13
2023-04-04T21:32:34.930Z,1.77
2023-04-04T21:33:57.397Z,1.90
2023-04-04T21:35:22.525Z,1.82
2023-04-04T21:36:44.740Z,2.02
2023-04-04T21:38:07.104Z,2.02
2023-04-04T21:39:29.869Z,2.00
2023-04-04T21:40:51.882Z,1.94
2023-04-04T21:43:29.508Z,2.14
2023-04-04T21:44:51.685Z,2.07
2023-04-04T21:46:13.457Z,1.99
2023-04-04T21:47:35.606Z,1.97
2023-04-04T21:48:56.885Z,2.13
2023-04-04T21:50:19.933Z,2.00
2023-04-04T21:51:41.974Z,2.43
2023-04-04T21:53:04.440Z,2.39
2023-04-04T21:54:27.762Z,2.83
2023-04-04T21:55:51.099Z,2.68
2023-04-04T21:57:14.588Z,2.21
2023-04-04T21:58:36.691Z,2.38
2023-04-04T21:59:58.175Z,2.47
2023-04-04T22:01:20.555Z,2.45
2023-04-04T22:02:42.134Z,2.36
2023-04-04T22:04:03.610Z,2.66
2023-04-04T22:05:38.144Z,3.10
2023-04-04T22:06:50.077Z,2.59
2023-04-04T22:08:11.439Z,2.32
2023-04-04T22:09:33.086Z,2.96
2023-04-04T22:10:54.191Z,2.49
2023-04-04T22:12:15.693Z,2.33
2023-04-04T22:13:37.102Z,2.72
2023-04-04T22:15:00.511Z,2.41
2023-04-04T22:16:25.216Z,2.31
2023-04-04T22:17:47.659Z,2.93
2023-04-04T22:19:09.488Z,3.18
2023-04-04T22:20:33.702Z,2.89
2023-04-04T22:21:55.323Z,3.28
2023-04-04T22:23:17.360Z,2.88
2023-04-04T22:24:38.972Z,2.53
2023-04-04T22:26:08.478Z,2.63
2023-04-04T22:27:34.362Z,2.43
2023-04-04T22:28:56.604Z,2.57
2023-04-04T22:30:17.756Z,2.83
2023-04-04T22:31:39.385Z,2.37
2023-04-04T22:33:01.967Z,2.10
2023-04-04T22:34:25.319Z,2.35
2023-04-04T22:37:08.329Z,2.31
2023-04-04T22:38:30.380Z,2.56
2023-04-04T22:39:51.511Z,2.42
2023-04-04T22:41:13.174Z,2.52
2023-04-04T22:42:35.696Z,2.83
2023-04-04T22:43:59.197Z,2.79
2023-04-04T22:46:42.751Z,2.82
2023-04-04T22:48:05.463Z,2.80
2023-04-04T22:49:27.355Z,2.43
2023-04-04T22:52:04.418Z,2.36
2023-04-04T22:53:26.353Z,2.73
2023-04-04T22:54:49.807Z,2.58
2023-04-04T22:56:11.839Z,2.33
2023-04-04T22:57:34.380Z,2.41
2023-04-04T22:58:55.945Z,2.43
2023-04-04T23:00:18.029Z,2.46
2023-04-04T23:01:40.402Z,2.67
2023-04-04T23:03:02.551Z,2.07
2023-04-04T23:04:25.739Z,2.09
2023-04-04T23:07:09.384Z,2.36
2023-04-04T23:08:31.589Z,2.40
2023-04-04T23:09:55.288Z,2.63
2023-04-04T23:12:38.890Z,2.63
2023-04-04T23:14:02.692Z,2.73
2023-04-04T23:16:45.860Z,2.69
2023-04-04T23:18:08.331Z,2.59
2023-04-04T23:19:29.950Z,2.61
2023-04-04T23:20:51.963Z,2.57
2023-04-04T23:22:13.565Z,2.59
2023-04-04T23:23:35.864Z,2.63
2023-04-04T23:24:57.914Z,2.59
2023-04-04T23:26:20.352Z,2.24
2023-04-04T23:27:41.607Z,2.38
2023-04-04T23:29:04.006Z,2.86
2023-04-04T23:30:25.402Z,2.25
2023-04-04T23:31:47.856Z,2.08
2023-04-04T23:33:09.531Z,2.61
2023-04-04T23:34:32.847Z,2.56
2023-04-04T23:35:54.963Z,2.51
2023-04-04T23:37:18.368Z,2.24
2023-04-04T23:40:05.087Z,2.69
2023-04-04T23:41:27.121Z,2.28
2023-04-04T23:42:49.094Z,2.46
2023-04-04T23:44:11.761Z,2.77
2023-04-04T23:45:35.352Z,2.01
2023-04-04T23:46:57.682Z,2.76
2023-04-04T23:48:19.312Z,2.81
2023-04-04T23:49:41.402Z,2.69
2023-04-04T23:51:03.923Z,2.78
2023-04-04T23:52:25.846Z,3.15
2023-04-04T23:53:48.396Z,4.30
2023-04-04T23:55:09.992Z,3.57
2023-04-04T23:56:32.422Z,3.43
2023-04-04T23:59:21.832Z,2.95
